createdAt,value
2023-01-22T00:00:37.142Z,92856.00
2023-01-22T00:01:37.156Z,92856.00
2023-01-22T00:02:37.257Z,92854.00
2023-01-22T00:03:37.278Z,92856.00
2023-01-22T00:04:37.224Z,92863.00
2023-01-22T00:05:37.294Z,92856.00
2023-01-22T00:06:37.410Z,92856.00
2023-01-22T00:07:37.579Z,92863.00
2023-01-22T00:08:37.548Z,92865.00
2023-01-22T00:09:37.576Z,92865.00
2023-01-22T00:10:37.594Z,92865.00
2023-01-22T00:11:37.624Z,92867.00
2023-01-22T00:12:37.630Z,92865.00
2023-01-22T00:13:37.704Z,92865.00
2023-01-22T00:14:37.883Z,92865.00
2023-01-22T00:15:37.906Z,92867.00
2023-01-22T00:16:37.851Z,92867.00
2023-01-22T00:17:37.869Z,92865.00
2023-01-22T00:18:37.958Z,92867.00
2023-01-22T00:19:38.080Z,92867.00
2023-01-22T00:20:38.329Z,92869.00
2023-01-22T00:21:38.105Z,92869.00
2023-01-22T00:22:38.285Z,92867.00
2023-01-22T00:23:38.130Z,92869.00
2023-01-22T00:24:38.150Z,92869.00
2023-01-22T00:25:38.233Z,92871.00
2023-01-22T00:26:38.278Z,92871.00
2023-01-22T00:27:38.393Z,92871.00
2023-01-22T00:28:38.409Z,92871.00
2023-01-22T00:29:38.426Z,92873.00
2023-01-22T00:30:38.442Z,92873.00
2023-01-22T00:31:38.532Z,92875.00
2023-01-22T00:32:38.481Z,92877.00
2023-01-22T00:33:38.569Z,92877.00
2023-01-22T00:34:38.686Z,92879.00
2023-01-22T00:35:38.783Z,92881.00
2023-01-22T00:36:38.901Z,92883.00
2023-01-22T00:37:39.010Z,92883.00
2023-01-22T00:38:39.140Z,92885.00
2023-01-22T00:39:39.129Z,92883.00
2023-01-22T00:40:39.160Z,92885.00
2023-01-22T00:41:39.180Z,92885.00
2023-01-22T00:42:39.193Z,92887.00
2023-01-22T00:43:39.207Z,92887.00
2023-01-22T00:44:39.325Z,92889.00
2023-01-22T00:45:39.428Z,92885.00
2023-01-22T00:46:39.658Z,92887.00
2023-01-22T00:47:39.652Z,92887.00
2023-01-22T00:48:39.672Z,92887.00
2023-01-22T00:49:39.695Z,92887.00
2023-01-22T00:50:39.717Z,92889.00
2023-01-22T00:51:39.862Z,92889.00
2023-01-22T00:52:39.748Z,92889.00
2023-01-22T00:53:39.827Z,92891.00
2023-01-22T00:54:39.959Z,92891.00
2023-01-22T00:55:40.068Z,92891.00
2023-01-22T00:56:40.085Z,92893.00
2023-01-22T00:57:40.098Z,92893.00
2023-01-22T00:58:40.123Z,92893.00
2023-01-22T00:59:40.159Z,92894.00
2023-01-22T01:00:40.172Z,92894.00
2023-01-22T01:01:40.279Z,92896.00
2023-01-22T01:02:40.341Z,92896.00
2023-01-22T01:03:40.455Z,92896.00
2023-01-22T01:04:40.457Z,92896.00
2023-01-22T01:05:40.488Z,92898.00
2023-01-22T01:06:40.496Z,92896.00
2023-01-22T01:07:40.498Z,92896.00
2023-01-22T01:08:40.525Z,92900.00
2023-01-22T01:09:40.607Z,92898.00
2023-01-22T01:10:40.728Z,92898.00
2023-01-22T01:11:40.835Z,92898.00
2023-01-22T01:12:41.015Z,92894.00
2023-01-22T01:13:41.051Z,92898.00
2023-01-22T01:14:41.158Z,92896.00
2023-01-22T01:15:41.174Z,92894.00
2023-01-22T01:16:41.204Z,92893.00
2023-01-22T01:17:41.231Z,92898.00
2023-01-22T01:18:41.262Z,92898.00
2023-01-22T01:19:41.265Z,92896.00
2023-01-22T01:20:41.378Z,92898.00
2023-01-22T01:21:41.459Z,92898.00
2023-01-22T01:22:41.565Z,92896.00
2023-01-22T01:23:41.663Z,92896.00
2023-01-22T01:24:41.779Z,92896.00
2023-01-22T01:25:41.902Z,92898.00
2023-01-22T01:26:42.010Z,92898.00
2023-01-22T01:27:42.116Z,92898.00
2023-01-22T01:28:42.203Z,92898.00
2023-01-22T01:29:42.156Z,92898.00
2023-01-22T01:30:42.176Z,92898.00
2023-01-22T01:31:42.209Z,92900.00
2023-01-22T01:32:42.269Z,92898.00
2023-01-22T01:33:42.292Z,92900.00
2023-01-22T01:34:42.296Z,92896.00
2023-01-22T01:35:42.307Z,92896.00
2023-01-22T01:36:49.887Z,92896.00
2023-01-22T01:37:43.343Z,92894.00
2023-01-22T01:38:42.339Z,92896.00
2023-01-22T01:39:42.351Z,92894.00
2023-01-22T01:40:42.355Z,92896.00
2023-01-22T01:41:42.365Z,92894.00
2023-01-22T01:42:42.365Z,92894.00
2023-01-22T01:43:42.356Z,92894.00
2023-01-22T01:44:42.459Z,92893.00
2023-01-22T01:45:42.384Z,92893.00
2023-01-22T01:46:42.403Z,92893.00
2023-01-22T01:47:42.394Z,92891.00
2023-01-22T01:48:42.393Z,92891.00
2023-01-22T01:49:42.414Z,92891.00
2023-01-22T01:50:42.413Z,92891.00
2023-01-22T01:51:42.461Z,92891.00
2023-01-22T01:52:42.569Z,92893.00
2023-01-22T01:53:42.671Z,92893.00
2023-01-22T01:54:42.809Z,92894.00
2023-01-22T01:55:42.890Z,92894.00
2023-01-22T01:56:43.007Z,92896.00
2023-01-22T01:57:43.130Z,92898.00
2023-01-22T01:58:43.173Z,92896.00
2023-01-22T01:59:43.204Z,92898.00
2023-01-22T02:00:43.450Z,92898.00
2023-01-22T02:01:43.245Z,92898.00
2023-01-22T02:02:43.238Z,92898.00
2023-01-22T02:03:43.377Z,92898.00
2023-01-22T02:04:43.359Z,92898.00
2023-01-22T02:05:43.385Z,92900.00
2023-01-22T02:06:43.404Z,92902.00
2023-01-22T02:07:43.428Z,92900.00
2023-01-22T02:08:43.452Z,92900.00
2023-01-22T02:09:43.541Z,92900.00
2023-01-22T02:10:43.557Z,92900.00
2023-01-22T02:11:43.584Z,92902.00
2023-01-22T02:12:43.612Z,92900.00
2023-01-22T02:13:43.631Z,92898.00
2023-01-22T02:14:43.648Z,92900.00
2023-01-22T02:15:43.721Z,92900.00
2023-01-22T02:16:43.828Z,92900.00
2023-01-22T02:17:43.760Z,92900.00
2023-01-22T02:18:43.771Z,92900.00
2023-01-22T02:19:43.827Z,92900.00
2023-01-22T02:20:43.821Z,92900.00
2023-01-22T02:21:43.942Z,92898.00
2023-01-22T02:22:43.958Z,92898.00
2023-01-22T02:23:43.975Z,92896.00
2023-01-22T02:24:44.003Z,92896.00
2023-01-22T02:25:44.007Z,92894.00
2023-01-22T02:26:44.025Z,92894.00
2023-01-22T02:27:44.135Z,92898.00
2023-01-22T02:28:44.239Z,92900.00
2023-01-22T02:29:44.267Z,92904.00
2023-01-22T02:30:44.289Z,92904.00
2023-01-22T02:31:44.382Z,92902.00
2023-01-22T02:32:44.392Z,92904.00
2023-01-22T02:33:44.337Z,92902.00
2023-01-22T02:34:44.433Z,92902.00
2023-01-22T02:35:44.547Z,92900.00
2023-01-22T02:36:44.663Z,92900.00
2023-01-22T02:37:44.686Z,92900.00
2023-01-22T02:38:44.689Z,92898.00
2023-01-22T02:39:44.725Z,92900.00
2023-01-22T02:40:44.740Z,92902.00
2023-01-22T02:41:44.753Z,92898.00
2023-01-22T02:42:44.857Z,92900.00
2023-01-22T02:43:44.993Z,92900.00
2023-01-22T02:44:45.020Z,92898.00
2023-01-22T02:45:45.067Z,92896.00
2023-01-22T02:46:45.051Z,92896.00
2023-01-22T02:47:45.091Z,92896.00
2023-01-22T02:48:45.173Z,92896.00
2023-01-22T02:49:45.142Z,92896.00
2023-01-22T02:50:45.194Z,92896.00
2023-01-22T02:51:45.186Z,92896.00
2023-01-22T02:52:45.208Z,92894.00
2023-01-22T02:53:45.222Z,92896.00
2023-01-22T02:54:45.325Z,92896.00
2023-01-22T02:55:45.346Z,92896.00
2023-01-22T02:56:45.358Z,92896.00
2023-01-22T02:57:45.370Z,92896.00
2023-01-22T02:58:45.403Z,92896.00
2023-01-22T02:59:45.406Z,92898.00
2023-01-22T03:00:45.515Z,92898.00
2023-01-22T03:01:45.620Z,92902.00
2023-01-22T03:02:45.642Z,92898.00
2023-01-22T03:03:45.658Z,92898.00
2023-01-22T03:04:46.321Z,92898.00
2023-01-22T03:05:45.701Z,92898.00
2023-01-22T03:06:45.723Z,92896.00
2023-01-22T03:07:45.738Z,92894.00
2023-01-22T03:08:45.749Z,92893.00
2023-01-22T03:09:45.774Z,92894.00
2023-01-22T03:10:45.874Z,92893.00
2023-01-22T03:11:45.983Z,92893.00
2023-01-22T03:12:46.001Z,92893.00
2023-01-22T03:13:46.027Z,92894.00
2023-01-22T03:14:46.043Z,92893.00
2023-01-22T03:15:46.048Z,92893.00
2023-01-22T03:16:46.111Z,92893.00
2023-01-22T03:17:46.156Z,92893.00
2023-01-22T03:18:46.170Z,92894.00
2023-01-22T03:19:46.196Z,92893.00
2023-01-22T03:20:46.297Z,92893.00
2023-01-22T03:21:46.228Z,92891.00
2023-01-22T03:22:46.226Z,92891.00
2023-01-22T03:23:46.333Z,92889.00
2023-01-22T03:24:46.352Z,92889.00
2023-01-22T03:25:46.371Z,92887.00
2023-01-22T03:26:46.390Z,92889.00
2023-01-22T03:27:46.400Z,92889.00
2023-01-22T03:28:46.421Z,92889.00
2023-01-22T03:29:46.526Z,92889.00
2023-01-22T03:30:46.547Z,92891.00
2023-01-22T03:31:46.648Z,92893.00
2023-01-22T03:32:46.593Z,92891.00
2023-01-22T03:33:46.610Z,92891.00
2023-01-22T03:34:46.631Z,92893.00
2023-01-22T03:35:46.749Z,92891.00
2023-01-22T03:36:46.910Z,92894.00
2023-01-22T03:37:46.854Z,92894.00
2023-01-22T03:38:46.871Z,92894.00
2023-01-22T03:39:46.892Z,92894.00
2023-01-22T03:40:46.904Z,92898.00
2023-01-22T03:41:47.031Z,92894.00
2023-01-22T03:42:47.129Z,92896.00
2023-01-22T03:43:47.167Z,92896.00
2023-01-22T03:44:47.189Z,92896.00
2023-01-22T03:45:47.236Z,92900.00
2023-01-22T03:46:47.219Z,92900.00
2023-01-22T03:47:47.223Z,92902.00
2023-01-22T03:48:47.340Z,92900.00
2023-01-22T03:49:47.339Z,92898.00
2023-01-22T03:50:47.390Z,92900.00
2023-01-22T03:51:47.384Z,92900.00
2023-01-22T03:52:47.478Z,92900.00
2023-01-22T03:53:47.402Z,92900.00
2023-01-22T03:54:47.500Z,92902.00
2023-01-22T03:55:47.598Z,92902.00
2023-01-22T03:56:47.598Z,92904.00
2023-01-22T03:57:47.611Z,92904.00
2023-01-22T03:58:47.611Z,92904.00
2023-01-22T03:59:47.678Z,92908.00
2023-01-22T04:00:47.668Z,92908.00
2023-01-22T04:01:47.689Z,92908.00
2023-01-22T04:02:47.721Z,92912.00
2023-01-22T04:03:47.721Z,92910.00
2023-01-22T04:04:47.754Z,92914.00
2023-01-22T04:05:47.826Z,92914.00
2023-01-22T04:06:47.933Z,92916.00
2023-01-22T04:07:48.037Z,92918.00
2023-01-22T04:08:48.118Z,92918.00
2023-01-22T04:09:48.059Z,92918.00
2023-01-22T04:10:48.075Z,92918.00
2023-01-22T04:11:48.106Z,92916.00
2023-01-22T04:12:48.204Z,92920.00
2023-01-22T07:52:55.566Z,93049.00
2023-01-22T07:53:55.594Z,93051.00
2023-01-22T07:54:55.717Z,93051.00
2023-01-22T07:55:55.837Z,93051.00
2023-01-22T07:56:55.947Z,93053.00
2023-01-22T07:57:56.063Z,93055.00
2023-01-22T07:58:56.082Z,93053.00
2023-01-22T07:59:56.100Z,93053.00
2023-01-22T08:00:56.149Z,93051.00
2023-01-22T08:01:56.133Z,93051.00
2023-01-22T08:02:56.121Z,93055.00
2023-01-22T08:03:56.210Z,93055.00
2023-01-22T08:04:56.235Z,93055.00
2023-01-22T08:05:56.244Z,93057.00
2023-01-22T08:06:56.249Z,93057.00
2023-01-22T08:07:56.265Z,93057.00
2023-01-22T08:09:57.373Z,93055.00
2023-01-22T08:10:56.306Z,93057.00
2023-01-22T08:11:56.312Z,93057.00
2023-01-22T08:12:56.324Z,93061.00
2023-01-22T08:13:56.340Z,93061.00
2023-01-22T08:14:56.352Z,93059.00
2023-01-22T08:15:56.417Z,93061.00
2023-01-22T08:16:56.348Z,93059.00
2023-01-22T08:17:56.356Z,93059.00
2023-01-22T08:18:56.365Z,93063.00
2023-01-22T08:19:56.374Z,93065.00
2023-01-22T08:20:56.385Z,93065.00
2023-01-22T08:21:56.378Z,93067.00
2023-01-22T08:22:56.376Z,93067.00
2023-01-22T08:23:56.388Z,93069.00
2023-01-22T08:24:56.404Z,93069.00
2023-01-22T08:25:56.516Z,93069.00
2023-01-22T08:26:56.456Z,93075.00
2023-01-22T08:27:56.475Z,93075.00
2023-01-22T09:02:57.890Z,93090.00
2023-01-22T09:03:57.919Z,93092.00
2023-01-22T09:04:57.936Z,93090.00
2023-01-22T09:05:57.967Z,93094.00
2023-01-22T09:06:57.960Z,93092.00
2023-01-22T09:07:58.019Z,93092.00
2023-01-22T09:08:58.087Z,93092.00
2023-01-22T09:09:58.104Z,93088.00
2023-01-22T09:10:58.089Z,93092.00
2023-01-22T09:11:58.100Z,93092.00
2023-01-22T09:12:58.106Z,93092.00
2023-01-22T09:13:58.200Z,93090.00
2023-01-22T09:14:58.177Z,93088.00
2023-01-22T09:15:58.647Z,93088.00
2023-01-22T09:16:58.221Z,93088.00
2023-01-22T09:17:58.244Z,93088.00
2023-01-22T09:18:58.276Z,93090.00
2023-01-22T09:19:58.298Z,93090.00
2023-01-22T09:20:58.331Z,93090.00
2023-01-22T09:21:58.344Z,93088.00
2023-01-22T09:22:58.383Z,93088.00
2023-01-22T09:23:58.457Z,93086.00
2023-01-22T09:24:58.510Z,93088.00
2023-01-22T09:25:58.544Z,93086.00
2023-01-22T09:26:58.602Z,93090.00
2023-01-22T09:27:58.643Z,93088.00
2023-01-22T09:28:58.687Z,93088.00
2023-01-22T09:29:58.817Z,93088.00
2023-01-22T09:30:58.805Z,93090.00
2023-01-22T09:31:58.939Z,93092.00
2023-01-22T09:32:58.938Z,93092.00
2023-01-22T09:33:59.020Z,93092.00
2023-01-22T09:34:59.063Z,93092.00
2023-01-22T09:35:59.108Z,93092.00
2023-01-22T09:36:59.198Z,93092.00
2023-01-22T09:37:59.264Z,93092.00
2023-01-22T09:38:59.321Z,93094.00
2023-01-22T09:39:59.377Z,93092.00
2023-01-22T09:40:59.468Z,93092.00
2023-01-22T11:33:05.558Z,93075.00
2023-01-22T11:34:05.612Z,93075.00
2023-01-22T11:35:05.686Z,93075.00
2023-01-22T11:36:06.477Z,93075.00
2023-01-22T11:37:05.864Z,93077.00
2023-01-22T11:38:05.941Z,93077.00
2023-01-22T11:39:06.014Z,93077.00
2023-01-22T11:40:06.163Z,93075.00
2023-01-22T11:41:06.165Z,93073.00
2023-01-22T11:58:07.350Z,93079.00
2023-01-22T11:59:07.406Z,93077.00
2023-01-22T12:00:07.478Z,93075.00
2023-01-22T12:01:07.552Z,93075.00
2023-01-22T12:02:07.634Z,93073.00
2023-01-22T12:03:07.716Z,93073.00
2023-01-22T12:04:07.852Z,93071.00
2023-01-22T12:05:07.875Z,93069.00
2023-01-22T12:06:07.949Z,93069.00
2023-01-22T12:07:08.046Z,93065.00
2023-01-22T12:08:08.125Z,93065.00
2023-01-22T12:09:08.210Z,93065.00
2023-01-22T12:10:08.287Z,93063.00
2023-01-22T12:11:08.354Z,93063.00
2023-01-22T12:12:08.527Z,93067.00
2023-01-22T12:13:08.513Z,93063.00
2023-01-22T12:14:08.595Z,93063.00
2023-01-22T12:15:08.673Z,93063.00
2023-01-22T12:16:08.858Z,93065.00
2023-01-22T12:17:08.842Z,93063.00
2023-01-22T12:18:08.922Z,93065.00
2023-01-22T12:19:08.991Z,93063.00
2023-01-22T12:20:09.036Z,93063.00
2023-01-22T12:21:09.103Z,93061.00
2023-01-22T12:22:09.133Z,93065.00
2023-01-22T12:23:09.170Z,93067.00
2023-01-22T12:24:09.241Z,93067.00
2023-01-22T12:25:09.240Z,93069.00
2023-01-22T12:26:09.247Z,93067.00
2023-01-22T12:27:11.104Z,93071.00
2023-01-22T12:28:09.433Z,93073.00
2023-01-22T12:29:09.358Z,93073.00
2023-01-22T12:30:09.363Z,93073.00
2023-01-22T12:31:09.484Z,93073.00
2023-01-22T12:32:09.391Z,93075.00
2023-01-22T12:33:09.402Z,93071.00
2023-01-22T12:34:09.404Z,93071.00
2023-01-22T12:35:09.423Z,93073.00
2023-01-22T12:36:09.425Z,93071.00
2023-01-22T12:37:09.439Z,93075.00
2023-01-22T12:38:12.080Z,93071.00
2023-01-22T12:39:09.460Z,93071.00
2023-01-22T12:40:09.480Z,93071.00
2023-01-22T12:41:09.505Z,93069.00
2023-01-22T12:42:09.515Z,93069.00
2023-01-22T12:43:09.505Z,93069.00
2023-01-22T12:44:10.609Z,93069.00
2023-01-22T12:45:09.518Z,93067.00
2023-01-22T12:46:09.553Z,93067.00
2023-01-22T12:47:09.523Z,93067.00
2023-01-22T12:48:09.535Z,93065.00
2023-01-22T12:49:09.561Z,93065.00
2023-01-22T12:50:09.574Z,93065.00
2023-01-22T12:51:09.646Z,93061.00
2023-01-22T12:52:09.598Z,93065.00
2023-01-22T12:53:09.599Z,93063.00
2023-01-22T12:54:09.610Z,93063.00
2023-01-22T12:55:09.614Z,93063.00
2023-01-22T12:56:09.623Z,93067.00
2023-01-22T12:57:09.628Z,93063.00
2023-01-22T12:58:09.624Z,93063.00
2023-01-22T12:59:09.642Z,93061.00
2023-01-22T13:00:09.734Z,93063.00
2023-01-22T13:01:09.680Z,93059.00
2023-01-22T13:02:09.775Z,93059.00
2023-01-22T13:03:09.650Z,93061.00
2023-01-22T13:04:09.654Z,93059.00
2023-01-22T13:05:09.673Z,93059.00
2023-01-22T13:06:09.683Z,93059.00
2023-01-22T13:07:09.708Z,93057.00
2023-01-22T13:08:09.725Z,93057.00
2023-01-22T13:09:09.697Z,93059.00
2023-01-22T13:10:09.701Z,93055.00
2023-01-22T13:11:09.699Z,93057.00
2023-01-22T13:12:09.747Z,93059.00
2023-01-22T13:13:09.743Z,93059.00
2023-01-22T13:14:15.114Z,93061.00
2023-01-22T13:15:10.819Z,93061.00
2023-01-22T13:16:09.957Z,93061.00
2023-01-22T13:17:09.841Z,93063.00
2023-01-22T13:18:09.835Z,93067.00
2023-01-22T13:19:09.850Z,93067.00
2023-01-22T13:20:09.895Z,93069.00
2023-01-22T13:21:09.895Z,93067.00
2023-01-22T13:22:09.894Z,93067.00
2023-01-22T13:23:09.882Z,93069.00
2023-01-22T13:24:09.979Z,93069.00
2023-01-22T13:25:10.033Z,93069.00
2023-01-22T13:26:10.073Z,93073.00
2023-01-22T13:27:10.157Z,93073.00
2023-01-22T13:28:10.155Z,93073.00
2023-01-22T13:29:10.182Z,93075.00
2023-01-22T13:30:10.263Z,93075.00
2023-01-22T13:31:10.382Z,93075.00
2023-01-22T13:32:10.492Z,93075.00
2023-01-22T13:33:10.469Z,93079.00
2023-01-22T13:34:10.525Z,93077.00
2023-01-22T13:35:10.590Z,93077.00
2023-01-22T13:36:10.636Z,93077.00
2023-01-22T13:37:10.689Z,93077.00
2023-01-22T13:38:10.720Z,93081.00
2023-01-22T13:39:10.775Z,93081.00
2023-01-22T13:40:10.817Z,93082.00
2023-01-22T13:41:10.854Z,93082.00
2023-01-22T13:42:12.391Z,93084.00
2023-01-22T13:43:10.937Z,93084.00
2023-01-22T13:44:10.974Z,93084.00
2023-01-22T13:45:11.040Z,93088.00
2023-01-22T13:46:11.105Z,93086.00
2023-01-22T13:47:11.073Z,93090.00
2023-01-22T13:48:11.167Z,93086.00
2023-01-22T13:49:11.119Z,93090.00
2023-01-22T13:50:11.197Z,93088.00
2023-01-22T13:51:11.307Z,93090.00
2023-01-22T13:52:11.380Z,93092.00
2023-01-22T13:53:11.398Z,93092.00
2023-01-22T13:54:11.444Z,93088.00
2023-01-22T13:55:11.539Z,93094.00
2023-01-22T13:56:11.578Z,93092.00
2023-01-22T13:57:11.608Z,93092.00
2023-01-22T13:58:11.643Z,93092.00
2023-01-22T13:59:11.676Z,93092.00
2023-01-22T14:00:11.727Z,93094.00
2023-01-22T14:01:11.762Z,93092.00
2023-01-22T14:02:12.020Z,93096.00
2023-01-22T14:03:11.892Z,93094.00
2023-01-22T14:04:11.988Z,93096.00
2023-01-22T14:05:11.910Z,93098.00
2023-01-22T14:06:11.945Z,93094.00
2023-01-22T14:07:11.959Z,93096.00
2023-01-22T14:08:11.998Z,93094.00
2023-01-22T14:09:12.068Z,93094.00
2023-01-22T14:10:12.228Z,93094.00
2023-01-22T14:11:12.188Z,93096.00
2023-01-22T14:12:12.205Z,93096.00
2023-01-22T14:13:12.235Z,93100.00
2023-01-22T14:14:12.292Z,93102.00
2023-01-22T14:15:12.363Z,93100.00
2023-01-22T14:16:12.441Z,93102.00
2023-01-22T14:17:12.475Z,93106.00
2023-01-22T14:18:12.552Z,93104.00
2023-01-22T14:19:12.620Z,93104.00
2023-01-22T15:18:15.517Z,93104.00
2023-01-22T15:19:17.537Z,93104.00
2023-01-22T15:20:15.639Z,93102.00
2023-01-22T15:21:15.571Z,93104.00
2023-01-22T15:22:15.579Z,93104.00
2023-01-22T15:23:15.595Z,93104.00
2023-01-22T15:24:15.712Z,93108.00
2023-01-22T15:25:15.605Z,93104.00
2023-01-22T15:26:15.617Z,93104.00
2023-01-22T15:27:15.606Z,93106.00
2023-01-22T15:28:15.613Z,93106.00
2023-01-22T15:29:15.625Z,93108.00
2023-01-22T15:30:15.628Z,93108.00
2023-01-22T15:31:15.654Z,93108.00
2023-01-22T15:32:15.639Z,93108.00
2023-01-22T15:33:15.660Z,93110.00
2023-01-22T15:34:15.655Z,93110.00
2023-01-22T15:35:15.663Z,93110.00
2023-01-22T15:36:15.680Z,93110.00
2023-01-22T15:37:15.707Z,93110.00
2023-01-22T15:38:15.722Z,93110.00
2023-01-22T15:39:15.726Z,93119.00
2023-01-22T15:40:15.832Z,93110.00
2023-01-22T15:41:15.767Z,93112.00
2023-01-22T15:42:15.762Z,93119.00
2023-01-22T15:43:15.779Z,93123.00
2023-01-22T15:44:15.793Z,93121.00
2023-01-22T15:45:15.799Z,93121.00
2023-01-22T15:46:16.810Z,93125.00
2023-01-22T15:47:15.804Z,93123.00
2023-01-22T15:48:15.820Z,93125.00
2023-01-22T15:49:15.833Z,93123.00
2023-01-22T15:50:15.833Z,93125.00
2023-01-22T15:51:15.898Z,93123.00
2023-01-22T15:52:15.849Z,93125.00
2023-01-22T15:53:15.861Z,93125.00
2023-01-22T15:54:15.877Z,93125.00
2023-01-22T15:56:15.953Z,93127.00
2023-01-22T15:57:15.877Z,93125.00
2023-01-22T15:58:15.914Z,93129.00
2023-01-22T15:59:15.965Z,93129.00
2023-01-22T16:00:15.978Z,93131.00
2023-01-22T16:01:15.990Z,93135.00
2023-01-22T16:03:16.012Z,93137.00
2023-01-22T16:04:16.008Z,93137.00
2023-01-22T16:05:16.027Z,93137.00
2023-01-22T16:06:16.940Z,93135.00
2023-01-22T16:07:16.170Z,93135.00
2023-01-22T16:08:16.943Z,93135.00
2023-01-22T16:09:16.190Z,93135.00
2023-01-22T16:10:16.274Z,93137.00
2023-01-22T16:11:16.225Z,93135.00
2023-01-22T16:13:16.609Z,93135.00
2023-01-22T16:14:16.592Z,93137.00
2023-01-22T16:18:16.645Z,93137.00
2023-01-22T16:24:16.719Z,93143.00
2023-01-22T16:32:16.821Z,93149.00
2023-01-22T16:33:17.442Z,93151.00
2023-01-22T16:34:16.867Z,93149.00
2023-01-22T16:35:16.903Z,93151.00
2023-01-22T16:36:16.929Z,93149.00
2023-01-22T16:37:16.948Z,93151.00
2023-01-22T16:38:16.982Z,93153.00
2023-01-22T16:39:17.913Z,93155.00
2023-01-22T16:40:17.374Z,93155.00
2023-01-22T16:41:24.107Z,93155.00
2023-01-22T16:42:18.121Z,93155.00
2023-01-22T16:43:17.137Z,93155.00
2023-01-22T16:44:17.227Z,93153.00
2023-01-22T16:45:17.134Z,93153.00
2023-01-22T16:46:17.198Z,93157.00
2023-01-22T16:47:17.154Z,93157.00
2023-01-22T16:48:17.148Z,93157.00
2023-01-22T16:50:17.651Z,93159.00
2023-01-22T16:51:17.247Z,93161.00
2023-01-22T16:52:22.812Z,93163.00
2023-01-22T16:54:17.947Z,93166.00
2023-01-22T16:55:17.217Z,93168.00
2023-01-22T16:56:17.230Z,93170.00
2023-01-22T16:57:18.870Z,93172.00
2023-01-22T16:58:17.237Z,93174.00
2023-01-22T16:59:17.250Z,93174.00
2023-01-22T17:00:17.722Z,93172.00
2023-01-22T17:01:17.303Z,93178.00
2023-01-22T17:02:18.292Z,93176.00
2023-01-22T17:03:17.278Z,93184.00
2023-01-22T17:04:17.307Z,93182.00
2023-01-22T17:05:17.307Z,93186.00
2023-01-22T17:06:17.335Z,93186.00
2023-01-22T17:07:32.296Z,93190.00
2023-01-22T17:08:18.345Z,93190.00
2023-01-22T17:09:17.355Z,93192.00
2023-01-22T17:10:17.729Z,93190.00
2023-01-22T17:11:17.372Z,93194.00
2023-01-22T17:13:17.959Z,93192.00
2023-01-22T17:14:17.406Z,93194.00
2023-01-22T17:15:17.407Z,93196.00
2023-01-22T17:16:17.500Z,93196.00
2023-01-22T17:17:17.963Z,93196.00
2023-01-22T17:18:17.457Z,93198.00
2023-01-22T17:19:17.458Z,93198.00
2023-01-22T17:20:17.816Z,93200.00
2023-01-22T17:21:17.467Z,93202.00
2023-01-22T17:22:17.488Z,93204.00
2023-01-22T17:23:17.493Z,93206.00
2023-01-22T17:24:17.538Z,93208.00
2023-01-22T17:25:17.547Z,93210.00
2023-01-22T17:26:17.575Z,93206.00
2023-01-22T17:27:17.600Z,93210.00
2023-01-22T17:28:17.633Z,93212.00
2023-01-22T17:30:18.067Z,93213.00
2023-01-22T17:31:17.809Z,93215.00
2023-01-22T17:33:17.821Z,93215.00
2023-01-22T17:37:17.885Z,93213.00
2023-01-22T17:38:17.911Z,93215.00
2023-01-22T19:07:20.789Z,93294.00
2023-01-22T19:08:20.895Z,93294.00
2023-01-22T19:09:20.836Z,93294.00
2023-01-22T19:10:20.857Z,93294.00
2023-01-22T19:11:20.870Z,93296.00
2023-01-22T19:12:20.970Z,93294.00
2023-01-22T19:13:21.048Z,93294.00
2023-01-22T19:14:20.993Z,93294.00
2023-01-22T19:15:21.270Z,93294.00
2023-01-22T19:16:21.150Z,93298.00
2023-01-22T21:13:23.630Z,93360.00
2023-01-22T21:14:23.605Z,93358.00
2023-01-22T21:16:23.800Z,93358.00
2023-01-22T21:17:23.679Z,93358.00
2023-01-22T21:18:23.698Z,93360.00
2023-01-22T21:20:23.759Z,93366.00
2023-01-22T21:22:23.846Z,93376.00
2023-01-22T21:23:23.883Z,93376.00
2023-01-22T21:24:23.922Z,93378.00
2023-01-22T21:25:23.946Z,93378.00
2023-01-22T21:26:23.976Z,93380.00
2023-01-22T21:27:24.022Z,93376.00
2023-01-22T21:28:24.040Z,93378.00
2023-01-22T21:29:24.077Z,93376.00
2023-01-22T21:30:24.095Z,93378.00
2023-01-22T21:31:24.173Z,93376.00
2023-01-22T21:32:24.253Z,93380.00
2023-01-22T21:33:24.215Z,93378.00
2023-01-22T21:34:24.238Z,93380.00
2023-01-22T21:35:24.262Z,93380.00
2023-01-22T21:36:24.302Z,93382.00
2023-01-22T21:37:24.365Z,93384.00
2023-01-22T21:38:24.395Z,93384.00
2023-01-22T22:09:25.580Z,93388.00
2023-01-22T22:10:25.639Z,93388.00
2023-01-22T22:11:25.676Z,93390.00
2023-01-22T22:12:25.690Z,93386.00
2023-01-22T22:13:25.729Z,93384.00
2023-01-22T22:14:25.800Z,93382.00
2023-01-22T22:15:25.864Z,93380.00
2023-01-22T22:16:25.911Z,93380.00
2023-01-22T22:17:25.924Z,93380.00
2023-01-22T22:18:25.946Z,93382.00
2023-01-22T22:19:25.975Z,93382.00
2023-01-22T22:20:26.067Z,93382.00
2023-01-22T22:21:26.094Z,93382.00
2023-01-22T22:22:26.116Z,93380.00
2023-01-22T22:23:26.152Z,93380.00
2023-01-22T22:24:26.176Z,93380.00
2023-01-22T22:25:26.195Z,93378.00
2023-01-22T22:26:26.227Z,93380.00
2023-01-22T22:27:27.787Z,93368.00
2023-01-22T22:28:26.290Z,93368.00
2023-01-22T22:29:26.312Z,93378.00
2023-01-22T22:30:26.361Z,93382.00
2023-01-22T22:31:26.414Z,93388.00
2023-01-22T22:32:26.400Z,93386.00
2023-01-22T22:33:26.425Z,93386.00
2023-01-22T22:34:26.445Z,93382.00
2023-01-22T22:35:26.486Z,93376.00
2023-01-22T22:36:26.584Z,93376.00
2023-01-22T22:37:26.539Z,93382.00
2023-01-22T22:38:26.604Z,93380.00
2023-01-22T22:39:26.607Z,93378.00
2023-01-22T22:40:26.654Z,93376.00
2023-01-22T22:41:26.678Z,93366.00
2023-01-22T22:42:26.689Z,93364.00
2023-01-22T22:43:26.742Z,93368.00
2023-01-22T22:44:26.776Z,93364.00
2023-01-22T22:45:26.806Z,93362.00
2023-01-22T22:46:26.828Z,93362.00
2023-01-22T22:47:26.851Z,93362.00
2023-01-22T22:48:26.937Z,93360.00
2023-01-22T22:49:26.959Z,93358.00
2023-01-22T22:50:26.993Z,93356.00
2023-01-22T22:51:27.058Z,93354.00
2023-01-22T22:52:27.117Z,93356.00
2023-01-22T22:53:27.071Z,93362.00
2023-01-22T22:54:27.132Z,93360.00
2023-01-22T22:55:27.153Z,93360.00
2023-01-22T22:56:27.186Z,93360.00
2023-01-22T22:57:27.215Z,93362.00
2023-01-22T22:58:27.248Z,93364.00
2023-01-22T22:59:27.287Z,93358.00
2023-01-22T23:00:27.309Z,93356.00
2023-01-22T23:01:27.351Z,93360.00
2023-01-22T23:02:27.372Z,93364.00
2023-01-22T23:03:27.428Z,93360.00
2023-01-22T23:04:27.476Z,93362.00
2023-01-22T23:05:27.462Z,93364.00
2023-01-22T23:06:27.512Z,93364.00
2023-01-22T23:07:27.552Z,93364.00
2023-01-22T23:08:27.645Z,93364.00
2023-01-22T23:09:27.622Z,93364.00
2023-01-22T23:10:27.659Z,93362.00
2023-01-22T23:11:27.686Z,93360.00
2023-01-22T23:12:27.724Z,93364.00
2023-01-22T23:13:27.737Z,93364.00
2023-01-22T23:14:27.857Z,93366.00
2023-01-22T23:15:27.967Z,93376.00
2023-01-22T23:16:28.053Z,93376.00
2023-01-22T23:17:28.038Z,93368.00
2023-01-22T23:18:28.063Z,93366.00
2023-01-22T23:19:28.100Z,93376.00
2023-01-22T23:20:28.109Z,93378.00
2023-01-22T23:21:28.188Z,93378.00
2023-01-22T23:22:28.210Z,93380.00
2023-01-22T23:23:28.238Z,93382.00
2023-01-22T23:24:28.357Z,93388.00
2023-01-22T23:25:28.294Z,93386.00
2023-01-22T23:26:28.417Z,93388.00
2023-01-22T23:27:28.426Z,93388.00